<?xml version="1.0" encoding="UTF-8"?>
<gpx version="1.1" creator="RoadTrp.org" xmlns="http://www.topografix.com/GPX/1/1">
<trk><name>Candies Creek Trail — Fletcher Park — July 21, 2026</name><trkseg>
<trkpt lat="35.178308" lon="-84.901901"><ele>228.3</ele><time>2026-07-21T20:12:36Z</time></trkpt>
<trkpt lat="35.178339" lon="-84.901874"><ele>228.3</ele><time>2026-07-21T20:12:38Z</time></trkpt>
<trkpt lat="35.178378" lon="-84.901873"><ele>228.6</ele><time>2026-07-21T20:12:40Z</time></trkpt>
<trkpt lat="35.178399" lon="-84.901893"><ele>228.3</ele><time>2026-07-21T20:12:42Z</time></trkpt>
<trkpt lat="35.178403" lon="-84.901896"><ele>228.3</ele><time>2026-07-21T20:12:43Z</time></trkpt>
<trkpt lat="35.178399" lon="-84.901903"><ele>228.6</ele><time>2026-07-21T20:13:57Z</time></trkpt>
<trkpt lat="35.178385" lon="-84.901917"><ele>232.9</ele><time>2026-07-21T20:13:58Z</time></trkpt>
<trkpt lat="35.178357" lon="-84.901935"><ele>232.9</ele><time>2026-07-21T20:14:01Z</time></trkpt>
<trkpt lat="35.178331" lon="-84.901947"><ele>233.2</ele><time>2026-07-21T20:14:04Z</time></trkpt>
<trkpt lat="35.178301" lon="-84.90196"><ele>234.1</ele><time>2026-07-21T20:14:06Z</time></trkpt>
<trkpt lat="35.178271" lon="-84.901976"><ele>235.0</ele><time>2026-07-21T20:14:09Z</time></trkpt>
<trkpt lat="35.17825" lon="-84.901996"><ele>234.1</ele><time>2026-07-21T20:14:12Z</time></trkpt>
<trkpt lat="35.178225" lon="-84.902015"><ele>233.8</ele><time>2026-07-21T20:14:15Z</time></trkpt>
<trkpt lat="35.178206" lon="-84.902049"><ele>234.1</ele><time>2026-07-21T20:14:19Z</time></trkpt>
<trkpt lat="35.178197" lon="-84.902067"><ele>235.0</ele><time>2026-07-21T20:14:22Z</time></trkpt>
<trkpt lat="35.178196" lon="-84.902065"><ele>234.7</ele><time>2026-07-21T20:14:23Z</time></trkpt>
<trkpt lat="35.178191" lon="-84.902064"><ele>234.1</ele><time>2026-07-21T20:14:26Z</time></trkpt>
<trkpt lat="35.178193" lon="-84.902069"><ele>234.1</ele><time>2026-07-21T20:14:27Z</time></trkpt>
<trkpt lat="35.178183" lon="-84.902106"><ele>234.4</ele><time>2026-07-21T20:14:30Z</time></trkpt>
<trkpt lat="35.178162" lon="-84.90213"><ele>234.7</ele><time>2026-07-21T20:14:33Z</time></trkpt>
<trkpt lat="35.178172" lon="-84.902121"><ele>234.1</ele><time>2026-07-21T20:14:34Z</time></trkpt>
<trkpt lat="35.178171" lon="-84.902122"><ele>234.4</ele><time>2026-07-21T20:14:35Z</time></trkpt>
<trkpt lat="35.178141" lon="-84.902144"><ele>233.2</ele><time>2026-07-21T20:14:39Z</time></trkpt>
<trkpt lat="35.178105" lon="-84.902166"><ele>232.0</ele><time>2026-07-21T20:14:42Z</time></trkpt>
<trkpt lat="35.178074" lon="-84.902188"><ele>231.6</ele><time>2026-07-21T20:14:46Z</time></trkpt>
<trkpt lat="35.178078" lon="-84.90219"><ele>232.6</ele><time>2026-07-21T20:14:48Z</time></trkpt>
<trkpt lat="35.178087" lon="-84.902183"><ele>232.3</ele><time>2026-07-21T20:14:49Z</time></trkpt>
<trkpt lat="35.17809" lon="-84.902181"><ele>232.3</ele><time>2026-07-21T20:14:51Z</time></trkpt>
<trkpt lat="35.178089" lon="-84.902186"><ele>232.3</ele><time>2026-07-21T20:14:52Z</time></trkpt>
<trkpt lat="35.178058" lon="-84.902223"><ele>232.0</ele><time>2026-07-21T20:14:55Z</time></trkpt>
<trkpt lat="35.178025" lon="-84.902256"><ele>235.6</ele><time>2026-07-21T20:14:58Z</time></trkpt>
<trkpt lat="35.178003" lon="-84.902291"><ele>235.3</ele><time>2026-07-21T20:15:00Z</time></trkpt>
<trkpt lat="35.177989" lon="-84.902322"><ele>234.7</ele><time>2026-07-21T20:15:02Z</time></trkpt>
<trkpt lat="35.177966" lon="-84.902354"><ele>234.7</ele><time>2026-07-21T20:15:05Z</time></trkpt>
<trkpt lat="35.177939" lon="-84.902388"><ele>234.4</ele><time>2026-07-21T20:15:08Z</time></trkpt>
<trkpt lat="35.177912" lon="-84.902412"><ele>234.4</ele><time>2026-07-21T20:15:11Z</time></trkpt>
<trkpt lat="35.177886" lon="-84.90244"><ele>234.4</ele><time>2026-07-21T20:15:14Z</time></trkpt>
<trkpt lat="35.17787" lon="-84.902477"><ele>233.2</ele><time>2026-07-21T20:15:17Z</time></trkpt>
<trkpt lat="35.177852" lon="-84.902513"><ele>233.5</ele><time>2026-07-21T20:15:20Z</time></trkpt>
<trkpt lat="35.177845" lon="-84.902555"><ele>232.6</ele><time>2026-07-21T20:15:23Z</time></trkpt>
<trkpt lat="35.177836" lon="-84.902602"><ele>231.3</ele><time>2026-07-21T20:15:26Z</time></trkpt>
<trkpt lat="35.177828" lon="-84.902634"><ele>230.7</ele><time>2026-07-21T20:15:28Z</time></trkpt>
<trkpt lat="35.177822" lon="-84.902682"><ele>229.5</ele><time>2026-07-21T20:15:31Z</time></trkpt>
<trkpt lat="35.17782" lon="-84.902727"><ele>229.2</ele><time>2026-07-21T20:15:34Z</time></trkpt>
<trkpt lat="35.177808" lon="-84.902771"><ele>228.3</ele><time>2026-07-21T20:15:37Z</time></trkpt>
<trkpt lat="35.177806" lon="-84.902818"><ele>228.0</ele><time>2026-07-21T20:15:40Z</time></trkpt>
<trkpt lat="35.177796" lon="-84.902865"><ele>228.6</ele><time>2026-07-21T20:15:43Z</time></trkpt>
<trkpt lat="35.17778" lon="-84.902896"><ele>227.4</ele><time>2026-07-21T20:15:45Z</time></trkpt>
<trkpt lat="35.177777" lon="-84.902943"><ele>227.1</ele><time>2026-07-21T20:15:48Z</time></trkpt>
<trkpt lat="35.177768" lon="-84.902985"><ele>226.8</ele><time>2026-07-21T20:15:51Z</time></trkpt>
<trkpt lat="35.177751" lon="-84.903028"><ele>224.9</ele><time>2026-07-21T20:15:54Z</time></trkpt>
<trkpt lat="35.177729" lon="-84.90307"><ele>226.8</ele><time>2026-07-21T20:15:57Z</time></trkpt>
<trkpt lat="35.177719" lon="-84.903105"><ele>227.4</ele><time>2026-07-21T20:15:59Z</time></trkpt>
<trkpt lat="35.177706" lon="-84.903137"><ele>226.8</ele><time>2026-07-21T20:16:01Z</time></trkpt>
<trkpt lat="35.177695" lon="-84.90318"><ele>224.9</ele><time>2026-07-21T20:16:04Z</time></trkpt>
<trkpt lat="35.177684" lon="-84.903222"><ele>223.1</ele><time>2026-07-21T20:16:07Z</time></trkpt>
<trkpt lat="35.177684" lon="-84.903256"><ele>223.1</ele><time>2026-07-21T20:16:09Z</time></trkpt>
<trkpt lat="35.177685" lon="-84.903303"><ele>222.2</ele><time>2026-07-21T20:16:12Z</time></trkpt>
<trkpt lat="35.177695" lon="-84.903347"><ele>220.4</ele><time>2026-07-21T20:16:15Z</time></trkpt>
<trkpt lat="35.177712" lon="-84.903391"><ele>220.7</ele><time>2026-07-21T20:16:18Z</time></trkpt>
<trkpt lat="35.177728" lon="-84.90342"><ele>220.1</ele><time>2026-07-21T20:16:20Z</time></trkpt>
<trkpt lat="35.177747" lon="-84.903445"><ele>220.1</ele><time>2026-07-21T20:16:22Z</time></trkpt>
<trkpt lat="35.177766" lon="-84.903468"><ele>219.5</ele><time>2026-07-21T20:16:24Z</time></trkpt>
<trkpt lat="35.177784" lon="-84.903496"><ele>219.2</ele><time>2026-07-21T20:16:26Z</time></trkpt>
<trkpt lat="35.177815" lon="-84.903508"><ele>220.4</ele><time>2026-07-21T20:16:28Z</time></trkpt>
<trkpt lat="35.177843" lon="-84.903526"><ele>221.0</ele><time>2026-07-21T20:16:30Z</time></trkpt>
<trkpt lat="35.177867" lon="-84.903566"><ele>221.6</ele><time>2026-07-21T20:16:33Z</time></trkpt>
<trkpt lat="35.177899" lon="-84.903592"><ele>223.1</ele><time>2026-07-21T20:16:36Z</time></trkpt>
<trkpt lat="35.177926" lon="-84.903602"><ele>224.3</ele><time>2026-07-21T20:16:38Z</time></trkpt>
<trkpt lat="35.177955" lon="-84.90361"><ele>224.3</ele><time>2026-07-21T20:16:40Z</time></trkpt>
<trkpt lat="35.177985" lon="-84.903617"><ele>223.4</ele><time>2026-07-21T20:16:42Z</time></trkpt>
<trkpt lat="35.178014" lon="-84.903623"><ele>223.1</ele><time>2026-07-21T20:16:44Z</time></trkpt>
<trkpt lat="35.178042" lon="-84.903634"><ele>223.4</ele><time>2026-07-21T20:16:46Z</time></trkpt>
<trkpt lat="35.178069" lon="-84.90365"><ele>224.9</ele><time>2026-07-21T20:16:48Z</time></trkpt>
<trkpt lat="35.178098" lon="-84.903657"><ele>225.6</ele><time>2026-07-21T20:16:50Z</time></trkpt>
<trkpt lat="35.178132" lon="-84.903671"><ele>224.9</ele><time>2026-07-21T20:16:53Z</time></trkpt>
<trkpt lat="35.178171" lon="-84.903669"><ele>224.0</ele><time>2026-07-21T20:16:56Z</time></trkpt>
<trkpt lat="35.178209" lon="-84.903664"><ele>224.0</ele><time>2026-07-21T20:16:59Z</time></trkpt>
<trkpt lat="35.178245" lon="-84.903663"><ele>224.3</ele><time>2026-07-21T20:17:02Z</time></trkpt>
<trkpt lat="35.178283" lon="-84.903655"><ele>221.9</ele><time>2026-07-21T20:17:05Z</time></trkpt>
<trkpt lat="35.178321" lon="-84.903646"><ele>222.2</ele><time>2026-07-21T20:17:08Z</time></trkpt>
<trkpt lat="35.178349" lon="-84.903639"><ele>224.0</ele><time>2026-07-21T20:17:10Z</time></trkpt>
<trkpt lat="35.178376" lon="-84.903632"><ele>224.6</ele><time>2026-07-21T20:17:12Z</time></trkpt>
<trkpt lat="35.178415" lon="-84.90364"><ele>224.0</ele><time>2026-07-21T20:17:15Z</time></trkpt>
<trkpt lat="35.178455" lon="-84.903634"><ele>224.3</ele><time>2026-07-21T20:17:18Z</time></trkpt>
<trkpt lat="35.178483" lon="-84.903623"><ele>224.9</ele><time>2026-07-21T20:17:20Z</time></trkpt>
<trkpt lat="35.178513" lon="-84.903627"><ele>224.3</ele><time>2026-07-21T20:17:22Z</time></trkpt>
<trkpt lat="35.178542" lon="-84.903627"><ele>224.3</ele><time>2026-07-21T20:17:24Z</time></trkpt>
<trkpt lat="35.178572" lon="-84.90363"><ele>224.0</ele><time>2026-07-21T20:17:26Z</time></trkpt>
<trkpt lat="35.178603" lon="-84.903635"><ele>225.2</ele><time>2026-07-21T20:17:28Z</time></trkpt>
<trkpt lat="35.178643" lon="-84.903644"><ele>225.2</ele><time>2026-07-21T20:17:31Z</time></trkpt>
<trkpt lat="35.178685" lon="-84.903646"><ele>224.3</ele><time>2026-07-21T20:17:34Z</time></trkpt>
<trkpt lat="35.178712" lon="-84.90365"><ele>224.6</ele><time>2026-07-21T20:17:36Z</time></trkpt>
<trkpt lat="35.178742" lon="-84.903659"><ele>224.9</ele><time>2026-07-21T20:17:38Z</time></trkpt>
<trkpt lat="35.17877" lon="-84.903667"><ele>226.2</ele><time>2026-07-21T20:17:40Z</time></trkpt>
<trkpt lat="35.178803" lon="-84.903674"><ele>225.6</ele><time>2026-07-21T20:17:43Z</time></trkpt>
<trkpt lat="35.178834" lon="-84.903686"><ele>226.2</ele><time>2026-07-21T20:17:46Z</time></trkpt>
<trkpt lat="35.178873" lon="-84.903701"><ele>226.2</ele><time>2026-07-21T20:17:49Z</time></trkpt>
<trkpt lat="35.1789" lon="-84.903707"><ele>226.5</ele><time>2026-07-21T20:17:51Z</time></trkpt>
<trkpt lat="35.178933" lon="-84.903725"><ele>225.9</ele><time>2026-07-21T20:17:54Z</time></trkpt>
<trkpt lat="35.178971" lon="-84.903741"><ele>225.9</ele><time>2026-07-21T20:17:57Z</time></trkpt>
<trkpt lat="35.178997" lon="-84.903755"><ele>225.9</ele><time>2026-07-21T20:17:59Z</time></trkpt>
<trkpt lat="35.179034" lon="-84.903775"><ele>226.8</ele><time>2026-07-21T20:18:02Z</time></trkpt>
<trkpt lat="35.179064" lon="-84.903802"><ele>226.5</ele><time>2026-07-21T20:18:05Z</time></trkpt>
<trkpt lat="35.179099" lon="-84.903821"><ele>226.8</ele><time>2026-07-21T20:18:08Z</time></trkpt>
<trkpt lat="35.179125" lon="-84.903834"><ele>225.9</ele><time>2026-07-21T20:18:10Z</time></trkpt>
<trkpt lat="35.17915" lon="-84.903849"><ele>224.9</ele><time>2026-07-21T20:18:12Z</time></trkpt>
<trkpt lat="35.17918" lon="-84.903873"><ele>224.6</ele><time>2026-07-21T20:18:15Z</time></trkpt>
<trkpt lat="35.179197" lon="-84.903898"><ele>223.7</ele><time>2026-07-21T20:18:17Z</time></trkpt>
<trkpt lat="35.179219" lon="-84.903921"><ele>224.3</ele><time>2026-07-21T20:18:19Z</time></trkpt>
<trkpt lat="35.179237" lon="-84.903948"><ele>224.3</ele><time>2026-07-21T20:18:21Z</time></trkpt>
<trkpt lat="35.179258" lon="-84.903972"><ele>224.3</ele><time>2026-07-21T20:18:23Z</time></trkpt>
<trkpt lat="35.179269" lon="-84.904005"><ele>223.7</ele><time>2026-07-21T20:18:25Z</time></trkpt>
<trkpt lat="35.179287" lon="-84.904049"><ele>222.5</ele><time>2026-07-21T20:18:28Z</time></trkpt>
<trkpt lat="35.179305" lon="-84.90409"><ele>221.9</ele><time>2026-07-21T20:18:31Z</time></trkpt>
<trkpt lat="35.17932" lon="-84.904121"><ele>221.6</ele><time>2026-07-21T20:18:33Z</time></trkpt>
<trkpt lat="35.179327" lon="-84.904157"><ele>221.9</ele><time>2026-07-21T20:18:35Z</time></trkpt>
<trkpt lat="35.179338" lon="-84.904203"><ele>222.8</ele><time>2026-07-21T20:18:38Z</time></trkpt>
<trkpt lat="35.179345" lon="-84.904244"><ele>221.6</ele><time>2026-07-21T20:18:41Z</time></trkpt>
<trkpt lat="35.179355" lon="-84.904276"><ele>221.6</ele><time>2026-07-21T20:18:43Z</time></trkpt>
<trkpt lat="35.179369" lon="-84.904321"><ele>223.4</ele><time>2026-07-21T20:18:46Z</time></trkpt>
<trkpt lat="35.179383" lon="-84.904363"><ele>223.4</ele><time>2026-07-21T20:18:49Z</time></trkpt>
<trkpt lat="35.179387" lon="-84.904405"><ele>223.4</ele><time>2026-07-21T20:18:52Z</time></trkpt>
<trkpt lat="35.179393" lon="-84.904438"><ele>224.0</ele><time>2026-07-21T20:18:54Z</time></trkpt>
<trkpt lat="35.179404" lon="-84.904485"><ele>224.0</ele><time>2026-07-21T20:18:57Z</time></trkpt>
<trkpt lat="35.179417" lon="-84.904529"><ele>222.8</ele><time>2026-07-21T20:19:00Z</time></trkpt>
<trkpt lat="35.179433" lon="-84.90457"><ele>221.9</ele><time>2026-07-21T20:19:03Z</time></trkpt>
<trkpt lat="35.179446" lon="-84.904601"><ele>222.8</ele><time>2026-07-21T20:19:05Z</time></trkpt>
<trkpt lat="35.179467" lon="-84.904642"><ele>222.2</ele><time>2026-07-21T20:19:08Z</time></trkpt>
<trkpt lat="35.17949" lon="-84.904682"><ele>221.0</ele><time>2026-07-21T20:19:11Z</time></trkpt>
<trkpt lat="35.17951" lon="-84.904722"><ele>220.1</ele><time>2026-07-21T20:19:14Z</time></trkpt>
<trkpt lat="35.179512" lon="-84.904764"><ele>219.2</ele><time>2026-07-21T20:19:17Z</time></trkpt>
<trkpt lat="35.179506" lon="-84.904809"><ele>219.2</ele><time>2026-07-21T20:19:20Z</time></trkpt>
<trkpt lat="35.179504" lon="-84.904854"><ele>219.8</ele><time>2026-07-21T20:19:23Z</time></trkpt>
<trkpt lat="35.179519" lon="-84.9049"><ele>219.8</ele><time>2026-07-21T20:19:26Z</time></trkpt>
<trkpt lat="35.179538" lon="-84.90493"><ele>218.8</ele><time>2026-07-21T20:19:28Z</time></trkpt>
<trkpt lat="35.179566" lon="-84.904956"><ele>218.5</ele><time>2026-07-21T20:19:31Z</time></trkpt>
<trkpt lat="35.179597" lon="-84.904975"><ele>218.5</ele><time>2026-07-21T20:19:34Z</time></trkpt>
<trkpt lat="35.179631" lon="-84.904964"><ele>220.1</ele><time>2026-07-21T20:19:36Z</time></trkpt>
<trkpt lat="35.179659" lon="-84.904931"><ele>220.7</ele><time>2026-07-21T20:19:39Z</time></trkpt>
<trkpt lat="35.179665" lon="-84.904896"><ele>220.4</ele><time>2026-07-21T20:19:41Z</time></trkpt>
<trkpt lat="35.179665" lon="-84.904862"><ele>219.8</ele><time>2026-07-21T20:19:43Z</time></trkpt>
<trkpt lat="35.17966" lon="-84.904827"><ele>220.4</ele><time>2026-07-21T20:19:45Z</time></trkpt>
<trkpt lat="35.179658" lon="-84.904792"><ele>221.3</ele><time>2026-07-21T20:19:47Z</time></trkpt>
<trkpt lat="35.179658" lon="-84.904756"><ele>221.3</ele><time>2026-07-21T20:19:49Z</time></trkpt>
<trkpt lat="35.179648" lon="-84.904724"><ele>222.5</ele><time>2026-07-21T20:19:51Z</time></trkpt>
<trkpt lat="35.179618" lon="-84.904711"><ele>223.7</ele><time>2026-07-21T20:19:53Z</time></trkpt>
<trkpt lat="35.179588" lon="-84.904715"><ele>224.0</ele><time>2026-07-21T20:19:55Z</time></trkpt>
<trkpt lat="35.179553" lon="-84.904704"><ele>224.3</ele><time>2026-07-21T20:19:58Z</time></trkpt>
<trkpt lat="35.179528" lon="-84.904689"><ele>225.6</ele><time>2026-07-21T20:20:01Z</time></trkpt>
<trkpt lat="35.179564" lon="-84.904677"><ele>224.9</ele><time>2026-07-21T20:20:04Z</time></trkpt>
<trkpt lat="35.179601" lon="-84.904695"><ele>224.3</ele><time>2026-07-21T20:20:07Z</time></trkpt>
<trkpt lat="35.17963" lon="-84.904696"><ele>224.6</ele><time>2026-07-21T20:20:09Z</time></trkpt>
<trkpt lat="35.179658" lon="-84.904688"><ele>224.0</ele><time>2026-07-21T20:20:11Z</time></trkpt>
<trkpt lat="35.179695" lon="-84.904685"><ele>223.7</ele><time>2026-07-21T20:20:14Z</time></trkpt>
<trkpt lat="35.179732" lon="-84.904667"><ele>222.5</ele><time>2026-07-21T20:20:17Z</time></trkpt>
<trkpt lat="35.17977" lon="-84.904654"><ele>222.2</ele><time>2026-07-21T20:20:20Z</time></trkpt>
<trkpt lat="35.179807" lon="-84.90464"><ele>223.1</ele><time>2026-07-21T20:20:23Z</time></trkpt>
<trkpt lat="35.179844" lon="-84.904628"><ele>222.5</ele><time>2026-07-21T20:20:26Z</time></trkpt>
<trkpt lat="35.179879" lon="-84.904624"><ele>221.9</ele><time>2026-07-21T20:20:29Z</time></trkpt>
<trkpt lat="35.179908" lon="-84.904602"><ele>221.9</ele><time>2026-07-21T20:20:32Z</time></trkpt>
<trkpt lat="35.179938" lon="-84.904564"><ele>221.9</ele><time>2026-07-21T20:20:35Z</time></trkpt>
<trkpt lat="35.179955" lon="-84.90453"><ele>221.9</ele><time>2026-07-21T20:20:37Z</time></trkpt>
<trkpt lat="35.179971" lon="-84.904501"><ele>222.5</ele><time>2026-07-21T20:20:39Z</time></trkpt>
<trkpt lat="35.179994" lon="-84.904459"><ele>222.8</ele><time>2026-07-21T20:20:42Z</time></trkpt>
<trkpt lat="35.180012" lon="-84.904424"><ele>223.1</ele><time>2026-07-21T20:20:45Z</time></trkpt>
<trkpt lat="35.180051" lon="-84.904417"><ele>223.7</ele><time>2026-07-21T20:20:48Z</time></trkpt>
<trkpt lat="35.180081" lon="-84.904441"><ele>224.3</ele><time>2026-07-21T20:20:51Z</time></trkpt>
<trkpt lat="35.180111" lon="-84.904462"><ele>223.7</ele><time>2026-07-21T20:20:54Z</time></trkpt>
<trkpt lat="35.180144" lon="-84.904483"><ele>224.3</ele><time>2026-07-21T20:20:57Z</time></trkpt>
<trkpt lat="35.180169" lon="-84.904498"><ele>224.0</ele><time>2026-07-21T20:20:59Z</time></trkpt>
<trkpt lat="35.180198" lon="-84.904531"><ele>223.4</ele><time>2026-07-21T20:21:02Z</time></trkpt>
<trkpt lat="35.180222" lon="-84.90457"><ele>223.1</ele><time>2026-07-21T20:21:05Z</time></trkpt>
<trkpt lat="35.180251" lon="-84.904567"><ele>220.7</ele><time>2026-07-21T20:21:07Z</time></trkpt>
<trkpt lat="35.180263" lon="-84.904533"><ele>219.8</ele><time>2026-07-21T20:21:09Z</time></trkpt>
<trkpt lat="35.180226" lon="-84.904513"><ele>219.5</ele><time>2026-07-21T20:21:11Z</time></trkpt>
<trkpt lat="35.180198" lon="-84.904503"><ele>219.2</ele><time>2026-07-21T20:21:13Z</time></trkpt>
<trkpt lat="35.180166" lon="-84.904472"><ele>220.7</ele><time>2026-07-21T20:21:16Z</time></trkpt>
<trkpt lat="35.180129" lon="-84.904458"><ele>222.2</ele><time>2026-07-21T20:21:19Z</time></trkpt>
<trkpt lat="35.180094" lon="-84.904432"><ele>222.2</ele><time>2026-07-21T20:21:22Z</time></trkpt>
<trkpt lat="35.180058" lon="-84.904409"><ele>223.4</ele><time>2026-07-21T20:21:25Z</time></trkpt>
<trkpt lat="35.180042" lon="-84.904382"><ele>224.3</ele><time>2026-07-21T20:21:27Z</time></trkpt>
<trkpt lat="35.180042" lon="-84.904345"><ele>224.0</ele><time>2026-07-21T20:21:29Z</time></trkpt>
<trkpt lat="35.180052" lon="-84.904312"><ele>223.7</ele><time>2026-07-21T20:21:31Z</time></trkpt>
<trkpt lat="35.18007" lon="-84.904268"><ele>224.3</ele><time>2026-07-21T20:21:34Z</time></trkpt>
<trkpt lat="35.180079" lon="-84.904236"><ele>224.6</ele><time>2026-07-21T20:21:36Z</time></trkpt>
<trkpt lat="35.180091" lon="-84.904192"><ele>224.9</ele><time>2026-07-21T20:21:39Z</time></trkpt>
<trkpt lat="35.180112" lon="-84.904154"><ele>224.6</ele><time>2026-07-21T20:21:42Z</time></trkpt>
<trkpt lat="35.18014" lon="-84.90412"><ele>224.6</ele><time>2026-07-21T20:21:45Z</time></trkpt>
<trkpt lat="35.180166" lon="-84.904092"><ele>224.3</ele><time>2026-07-21T20:21:48Z</time></trkpt>
<trkpt lat="35.180184" lon="-84.904066"><ele>224.6</ele><time>2026-07-21T20:21:50Z</time></trkpt>
<trkpt lat="35.180202" lon="-84.904038"><ele>224.0</ele><time>2026-07-21T20:21:52Z</time></trkpt>
<trkpt lat="35.180225" lon="-84.904019"><ele>223.7</ele><time>2026-07-21T20:21:54Z</time></trkpt>
<trkpt lat="35.180255" lon="-84.903989"><ele>225.6</ele><time>2026-07-21T20:21:57Z</time></trkpt>
<trkpt lat="35.180289" lon="-84.903961"><ele>225.9</ele><time>2026-07-21T20:22:00Z</time></trkpt>
<trkpt lat="35.18031" lon="-84.903935"><ele>225.6</ele><time>2026-07-21T20:22:02Z</time></trkpt>
<trkpt lat="35.180344" lon="-84.903914"><ele>225.6</ele><time>2026-07-21T20:22:05Z</time></trkpt>
<trkpt lat="35.180376" lon="-84.903893"><ele>224.9</ele><time>2026-07-21T20:22:08Z</time></trkpt>
<trkpt lat="35.180411" lon="-84.903868"><ele>224.6</ele><time>2026-07-21T20:22:11Z</time></trkpt>
<trkpt lat="35.180436" lon="-84.903844"><ele>224.9</ele><time>2026-07-21T20:22:13Z</time></trkpt>
<trkpt lat="35.180467" lon="-84.903818"><ele>224.6</ele><time>2026-07-21T20:22:16Z</time></trkpt>
<trkpt lat="35.180501" lon="-84.903798"><ele>224.0</ele><time>2026-07-21T20:22:19Z</time></trkpt>
<trkpt lat="35.180532" lon="-84.90377"><ele>224.0</ele><time>2026-07-21T20:22:22Z</time></trkpt>
<trkpt lat="35.180563" lon="-84.903743"><ele>224.3</ele><time>2026-07-21T20:22:25Z</time></trkpt>
<trkpt lat="35.180597" lon="-84.903718"><ele>224.6</ele><time>2026-07-21T20:22:28Z</time></trkpt>
<trkpt lat="35.180633" lon="-84.903697"><ele>224.9</ele><time>2026-07-21T20:22:31Z</time></trkpt>
<trkpt lat="35.180652" lon="-84.903672"><ele>224.9</ele><time>2026-07-21T20:22:33Z</time></trkpt>
<trkpt lat="35.180684" lon="-84.903643"><ele>225.9</ele><time>2026-07-21T20:22:36Z</time></trkpt>
<trkpt lat="35.180715" lon="-84.903623"><ele>225.6</ele><time>2026-07-21T20:22:39Z</time></trkpt>
<trkpt lat="35.180754" lon="-84.903616"><ele>228.3</ele><time>2026-07-21T20:22:42Z</time></trkpt>
<trkpt lat="35.180794" lon="-84.903611"><ele>230.1</ele><time>2026-07-21T20:22:45Z</time></trkpt>
<trkpt lat="35.18083" lon="-84.903602"><ele>231.0</ele><time>2026-07-21T20:22:48Z</time></trkpt>
<trkpt lat="35.180859" lon="-84.903603"><ele>231.6</ele><time>2026-07-21T20:22:50Z</time></trkpt>
<trkpt lat="35.180888" lon="-84.903599"><ele>232.0</ele><time>2026-07-21T20:22:52Z</time></trkpt>
<trkpt lat="35.180915" lon="-84.903587"><ele>232.3</ele><time>2026-07-21T20:22:54Z</time></trkpt>
<trkpt lat="35.180953" lon="-84.903573"><ele>232.6</ele><time>2026-07-21T20:22:57Z</time></trkpt>
<trkpt lat="35.18099" lon="-84.903547"><ele>231.3</ele><time>2026-07-21T20:23:00Z</time></trkpt>
<trkpt lat="35.181014" lon="-84.903529"><ele>231.0</ele><time>2026-07-21T20:23:02Z</time></trkpt>
<trkpt lat="35.181041" lon="-84.903516"><ele>231.0</ele><time>2026-07-21T20:23:04Z</time></trkpt>
<trkpt lat="35.181066" lon="-84.903501"><ele>230.7</ele><time>2026-07-21T20:23:06Z</time></trkpt>
<trkpt lat="35.181093" lon="-84.903489"><ele>228.9</ele><time>2026-07-21T20:23:08Z</time></trkpt>
<trkpt lat="35.181122" lon="-84.90348"><ele>228.3</ele><time>2026-07-21T20:23:10Z</time></trkpt>
<trkpt lat="35.181159" lon="-84.903464"><ele>228.9</ele><time>2026-07-21T20:23:13Z</time></trkpt>
<trkpt lat="35.18119" lon="-84.903445"><ele>228.6</ele><time>2026-07-21T20:23:16Z</time></trkpt>
<trkpt lat="35.181223" lon="-84.903457"><ele>228.6</ele><time>2026-07-21T20:23:19Z</time></trkpt>
<trkpt lat="35.181255" lon="-84.903485"><ele>227.4</ele><time>2026-07-21T20:23:22Z</time></trkpt>
<trkpt lat="35.181282" lon="-84.903496"><ele>227.1</ele><time>2026-07-21T20:23:24Z</time></trkpt>
<trkpt lat="35.181305" lon="-84.903517"><ele>225.6</ele><time>2026-07-21T20:23:26Z</time></trkpt>
<trkpt lat="35.181342" lon="-84.903532"><ele>223.7</ele><time>2026-07-21T20:23:29Z</time></trkpt>
<trkpt lat="35.181375" lon="-84.903549"><ele>224.6</ele><time>2026-07-21T20:23:32Z</time></trkpt>
<trkpt lat="35.181409" lon="-84.903567"><ele>226.2</ele><time>2026-07-21T20:23:35Z</time></trkpt>
<trkpt lat="35.18144" lon="-84.903587"><ele>225.6</ele><time>2026-07-21T20:23:38Z</time></trkpt>
<trkpt lat="35.181478" lon="-84.903596"><ele>225.6</ele><time>2026-07-21T20:23:41Z</time></trkpt>
<trkpt lat="35.181505" lon="-84.903601"><ele>226.2</ele><time>2026-07-21T20:23:43Z</time></trkpt>
<trkpt lat="35.181533" lon="-84.903607"><ele>227.1</ele><time>2026-07-21T20:23:45Z</time></trkpt>
<trkpt lat="35.18156" lon="-84.903616"><ele>228.3</ele><time>2026-07-21T20:23:47Z</time></trkpt>
<trkpt lat="35.181589" lon="-84.903621"><ele>226.5</ele><time>2026-07-21T20:23:49Z</time></trkpt>
<trkpt lat="35.181616" lon="-84.903623"><ele>225.6</ele><time>2026-07-21T20:23:51Z</time></trkpt>
<trkpt lat="35.181644" lon="-84.903629"><ele>224.9</ele><time>2026-07-21T20:23:53Z</time></trkpt>
<trkpt lat="35.181671" lon="-84.903637"><ele>224.0</ele><time>2026-07-21T20:23:55Z</time></trkpt>
<trkpt lat="35.181707" lon="-84.903648"><ele>223.1</ele><time>2026-07-21T20:23:58Z</time></trkpt>
<trkpt lat="35.181743" lon="-84.903658"><ele>222.5</ele><time>2026-07-21T20:24:01Z</time></trkpt>
<trkpt lat="35.181763" lon="-84.903633"><ele>223.1</ele><time>2026-07-21T20:24:03Z</time></trkpt>
<trkpt lat="35.18179" lon="-84.903603"><ele>221.0</ele><time>2026-07-21T20:24:06Z</time></trkpt>
<trkpt lat="35.181823" lon="-84.90358"><ele>220.4</ele><time>2026-07-21T20:24:09Z</time></trkpt>
<trkpt lat="35.181815" lon="-84.903625"><ele>219.5</ele><time>2026-07-21T20:24:13Z</time></trkpt>
<trkpt lat="35.181787" lon="-84.903641"><ele>220.4</ele><time>2026-07-21T20:24:15Z</time></trkpt>
<trkpt lat="35.181781" lon="-84.903686"><ele>220.4</ele><time>2026-07-21T20:24:18Z</time></trkpt>
<trkpt lat="35.181806" lon="-84.903707"><ele>219.8</ele><time>2026-07-21T20:24:20Z</time></trkpt>
<trkpt lat="35.181844" lon="-84.903718"><ele>221.0</ele><time>2026-07-21T20:24:23Z</time></trkpt>
<trkpt lat="35.181884" lon="-84.903726"><ele>221.3</ele><time>2026-07-21T20:24:26Z</time></trkpt>
<trkpt lat="35.181922" lon="-84.903741"><ele>219.5</ele><time>2026-07-21T20:24:29Z</time></trkpt>
<trkpt lat="35.181963" lon="-84.903752"><ele>219.8</ele><time>2026-07-21T20:24:32Z</time></trkpt>
<trkpt lat="35.18199" lon="-84.903762"><ele>218.8</ele><time>2026-07-21T20:24:34Z</time></trkpt>
<trkpt lat="35.18201" lon="-84.903787"><ele>219.5</ele><time>2026-07-21T20:24:36Z</time></trkpt>
<trkpt lat="35.182028" lon="-84.903829"><ele>220.4</ele><time>2026-07-21T20:24:39Z</time></trkpt>
<trkpt lat="35.18204" lon="-84.903877"><ele>220.4</ele><time>2026-07-21T20:24:42Z</time></trkpt>
<trkpt lat="35.182047" lon="-84.903924"><ele>219.2</ele><time>2026-07-21T20:24:45Z</time></trkpt>
<trkpt lat="35.182061" lon="-84.903967"><ele>218.8</ele><time>2026-07-21T20:24:48Z</time></trkpt>
<trkpt lat="35.182078" lon="-84.90401"><ele>220.7</ele><time>2026-07-21T20:24:51Z</time></trkpt>
<trkpt lat="35.182095" lon="-84.904054"><ele>219.8</ele><time>2026-07-21T20:24:54Z</time></trkpt>
<trkpt lat="35.182117" lon="-84.904095"><ele>219.5</ele><time>2026-07-21T20:24:57Z</time></trkpt>
<trkpt lat="35.182148" lon="-84.904129"><ele>218.5</ele><time>2026-07-21T20:25:00Z</time></trkpt>
<trkpt lat="35.182182" lon="-84.904149"><ele>218.8</ele><time>2026-07-21T20:25:03Z</time></trkpt>
<trkpt lat="35.182215" lon="-84.904165"><ele>218.5</ele><time>2026-07-21T20:25:06Z</time></trkpt>
<trkpt lat="35.182253" lon="-84.904183"><ele>219.2</ele><time>2026-07-21T20:25:09Z</time></trkpt>
<trkpt lat="35.182292" lon="-84.904187"><ele>219.5</ele><time>2026-07-21T20:25:12Z</time></trkpt>
<trkpt lat="35.18233" lon="-84.904182"><ele>220.7</ele><time>2026-07-21T20:25:15Z</time></trkpt>
<trkpt lat="35.182356" lon="-84.904193"><ele>221.9</ele><time>2026-07-21T20:25:17Z</time></trkpt>
<trkpt lat="35.182395" lon="-84.904192"><ele>221.9</ele><time>2026-07-21T20:25:20Z</time></trkpt>
<trkpt lat="35.182436" lon="-84.904191"><ele>220.4</ele><time>2026-07-21T20:25:23Z</time></trkpt>
<trkpt lat="35.182465" lon="-84.904199"><ele>220.4</ele><time>2026-07-21T20:25:25Z</time></trkpt>
<trkpt lat="35.182505" lon="-84.904203"><ele>221.6</ele><time>2026-07-21T20:25:28Z</time></trkpt>
<trkpt lat="35.182532" lon="-84.904201"><ele>221.0</ele><time>2026-07-21T20:25:30Z</time></trkpt>
<trkpt lat="35.18256" lon="-84.9042"><ele>220.4</ele><time>2026-07-21T20:25:32Z</time></trkpt>
<trkpt lat="35.182602" lon="-84.904194"><ele>223.4</ele><time>2026-07-21T20:25:35Z</time></trkpt>
<trkpt lat="35.182631" lon="-84.904189"><ele>224.0</ele><time>2026-07-21T20:25:37Z</time></trkpt>
<trkpt lat="35.182663" lon="-84.904188"><ele>223.4</ele><time>2026-07-21T20:25:39Z</time></trkpt>
<trkpt lat="35.1827" lon="-84.904196"><ele>223.4</ele><time>2026-07-21T20:25:42Z</time></trkpt>
<trkpt lat="35.18274" lon="-84.904194"><ele>223.7</ele><time>2026-07-21T20:25:45Z</time></trkpt>
<trkpt lat="35.182774" lon="-84.904167"><ele>224.0</ele><time>2026-07-21T20:25:48Z</time></trkpt>
<trkpt lat="35.182807" lon="-84.904144"><ele>224.9</ele><time>2026-07-21T20:25:51Z</time></trkpt>
<trkpt lat="35.182834" lon="-84.904109"><ele>225.9</ele><time>2026-07-21T20:25:54Z</time></trkpt>
<trkpt lat="35.182848" lon="-84.904078"><ele>225.6</ele><time>2026-07-21T20:25:56Z</time></trkpt>
<trkpt lat="35.182859" lon="-84.904046"><ele>224.6</ele><time>2026-07-21T20:25:58Z</time></trkpt>
<trkpt lat="35.182881" lon="-84.904005"><ele>223.7</ele><time>2026-07-21T20:26:01Z</time></trkpt>
<trkpt lat="35.182902" lon="-84.903983"><ele>223.7</ele><time>2026-07-21T20:26:03Z</time></trkpt>
<trkpt lat="35.182933" lon="-84.903959"><ele>222.8</ele><time>2026-07-21T20:26:06Z</time></trkpt>
<trkpt lat="35.182967" lon="-84.903928"><ele>221.9</ele><time>2026-07-21T20:26:09Z</time></trkpt>
<trkpt lat="35.182994" lon="-84.903908"><ele>221.0</ele><time>2026-07-21T20:26:11Z</time></trkpt>
<trkpt lat="35.183032" lon="-84.903889"><ele>220.4</ele><time>2026-07-21T20:26:14Z</time></trkpt>
<trkpt lat="35.18307" lon="-84.903874"><ele>218.2</ele><time>2026-07-21T20:26:17Z</time></trkpt>
<trkpt lat="35.183095" lon="-84.90386"><ele>219.8</ele><time>2026-07-21T20:26:19Z</time></trkpt>
<trkpt lat="35.183122" lon="-84.903848"><ele>220.1</ele><time>2026-07-21T20:26:21Z</time></trkpt>
<trkpt lat="35.183148" lon="-84.903832"><ele>220.4</ele><time>2026-07-21T20:26:23Z</time></trkpt>
<trkpt lat="35.183182" lon="-84.90381"><ele>221.0</ele><time>2026-07-21T20:26:26Z</time></trkpt>
<trkpt lat="35.183215" lon="-84.903791"><ele>221.6</ele><time>2026-07-21T20:26:29Z</time></trkpt>
<trkpt lat="35.183249" lon="-84.903772"><ele>221.3</ele><time>2026-07-21T20:26:32Z</time></trkpt>
<trkpt lat="35.183283" lon="-84.903748"><ele>221.3</ele><time>2026-07-21T20:26:35Z</time></trkpt>
<trkpt lat="35.183314" lon="-84.903718"><ele>222.5</ele><time>2026-07-21T20:26:38Z</time></trkpt>
<trkpt lat="35.183345" lon="-84.903687"><ele>223.1</ele><time>2026-07-21T20:26:41Z</time></trkpt>
<trkpt lat="35.183377" lon="-84.90366"><ele>223.1</ele><time>2026-07-21T20:26:44Z</time></trkpt>
<trkpt lat="35.183407" lon="-84.903633"><ele>222.5</ele><time>2026-07-21T20:26:47Z</time></trkpt>
<trkpt lat="35.183435" lon="-84.903604"><ele>222.8</ele><time>2026-07-21T20:26:50Z</time></trkpt>
<trkpt lat="35.183456" lon="-84.903582"><ele>222.5</ele><time>2026-07-21T20:26:52Z</time></trkpt>
<trkpt lat="35.183485" lon="-84.903555"><ele>222.5</ele><time>2026-07-21T20:26:55Z</time></trkpt>
<trkpt lat="35.183513" lon="-84.903525"><ele>221.6</ele><time>2026-07-21T20:26:58Z</time></trkpt>
<trkpt lat="35.18353" lon="-84.903498"><ele>221.6</ele><time>2026-07-21T20:27:00Z</time></trkpt>
<trkpt lat="35.183547" lon="-84.903469"><ele>221.9</ele><time>2026-07-21T20:27:02Z</time></trkpt>
<trkpt lat="35.183569" lon="-84.903429"><ele>221.6</ele><time>2026-07-21T20:27:05Z</time></trkpt>
<trkpt lat="35.183595" lon="-84.903395"><ele>220.4</ele><time>2026-07-21T20:27:08Z</time></trkpt>
<trkpt lat="35.183618" lon="-84.903355"><ele>220.1</ele><time>2026-07-21T20:27:11Z</time></trkpt>
<trkpt lat="35.18363" lon="-84.903324"><ele>220.4</ele><time>2026-07-21T20:27:13Z</time></trkpt>
<trkpt lat="35.183643" lon="-84.903292"><ele>220.7</ele><time>2026-07-21T20:27:15Z</time></trkpt>
<trkpt lat="35.18366" lon="-84.903264"><ele>221.0</ele><time>2026-07-21T20:27:17Z</time></trkpt>
<trkpt lat="35.183672" lon="-84.903233"><ele>221.3</ele><time>2026-07-21T20:27:19Z</time></trkpt>
<trkpt lat="35.183692" lon="-84.903189"><ele>221.0</ele><time>2026-07-21T20:27:22Z</time></trkpt>
<trkpt lat="35.183712" lon="-84.903147"><ele>219.8</ele><time>2026-07-21T20:27:25Z</time></trkpt>
<trkpt lat="35.183727" lon="-84.903116"><ele>219.5</ele><time>2026-07-21T20:27:27Z</time></trkpt>
<trkpt lat="35.183747" lon="-84.903072"><ele>221.3</ele><time>2026-07-21T20:27:30Z</time></trkpt>
<trkpt lat="35.183765" lon="-84.903043"><ele>220.1</ele><time>2026-07-21T20:27:32Z</time></trkpt>
<trkpt lat="35.183781" lon="-84.903015"><ele>220.7</ele><time>2026-07-21T20:27:34Z</time></trkpt>
<trkpt lat="35.183793" lon="-84.902984"><ele>221.0</ele><time>2026-07-21T20:27:36Z</time></trkpt>
<trkpt lat="35.18381" lon="-84.902939"><ele>221.0</ele><time>2026-07-21T20:27:39Z</time></trkpt>
<trkpt lat="35.183814" lon="-84.902903"><ele>221.0</ele><time>2026-07-21T20:27:41Z</time></trkpt>
<trkpt lat="35.18381" lon="-84.902867"><ele>221.3</ele><time>2026-07-21T20:27:43Z</time></trkpt>
<trkpt lat="35.183799" lon="-84.902819"><ele>221.9</ele><time>2026-07-21T20:27:46Z</time></trkpt>
<trkpt lat="35.18379" lon="-84.902786"><ele>222.2</ele><time>2026-07-21T20:27:48Z</time></trkpt>
<trkpt lat="35.183773" lon="-84.902745"><ele>221.3</ele><time>2026-07-21T20:27:51Z</time></trkpt>
<trkpt lat="35.183747" lon="-84.90271"><ele>221.6</ele><time>2026-07-21T20:27:54Z</time></trkpt>
<trkpt lat="35.183712" lon="-84.902683"><ele>221.0</ele><time>2026-07-21T20:27:57Z</time></trkpt>
<trkpt lat="35.183677" lon="-84.902663"><ele>220.7</ele><time>2026-07-21T20:28:00Z</time></trkpt>
<trkpt lat="35.183651" lon="-84.902649"><ele>221.3</ele><time>2026-07-21T20:28:02Z</time></trkpt>
<trkpt lat="35.183611" lon="-84.902635"><ele>220.4</ele><time>2026-07-21T20:28:05Z</time></trkpt>
<trkpt lat="35.183572" lon="-84.902626"><ele>220.1</ele><time>2026-07-21T20:28:08Z</time></trkpt>
<trkpt lat="35.183544" lon="-84.902628"><ele>219.8</ele><time>2026-07-21T20:28:10Z</time></trkpt>
<trkpt lat="35.183505" lon="-84.902624"><ele>217.6</ele><time>2026-07-21T20:28:13Z</time></trkpt>
<trkpt lat="35.183467" lon="-84.902636"><ele>217.3</ele><time>2026-07-21T20:28:16Z</time></trkpt>
<trkpt lat="35.183433" lon="-84.902656"><ele>217.3</ele><time>2026-07-21T20:28:19Z</time></trkpt>
<trkpt lat="35.183399" lon="-84.902674"><ele>216.7</ele><time>2026-07-21T20:28:22Z</time></trkpt>
<trkpt lat="35.183365" lon="-84.902688"><ele>216.7</ele><time>2026-07-21T20:28:25Z</time></trkpt>
<trkpt lat="35.183329" lon="-84.902711"><ele>216.1</ele><time>2026-07-21T20:28:28Z</time></trkpt>
<trkpt lat="35.183305" lon="-84.902729"><ele>215.2</ele><time>2026-07-21T20:28:30Z</time></trkpt>
<trkpt lat="35.183273" lon="-84.902755"><ele>216.1</ele><time>2026-07-21T20:28:33Z</time></trkpt>
<trkpt lat="35.183237" lon="-84.902781"><ele>216.4</ele><time>2026-07-21T20:28:36Z</time></trkpt>
<trkpt lat="35.183201" lon="-84.902802"><ele>215.5</ele><time>2026-07-21T20:28:39Z</time></trkpt>
<trkpt lat="35.183164" lon="-84.902823"><ele>217.0</ele><time>2026-07-21T20:28:42Z</time></trkpt>
<trkpt lat="35.183124" lon="-84.902832"><ele>214.9</ele><time>2026-07-21T20:28:45Z</time></trkpt>
<trkpt lat="35.183085" lon="-84.902841"><ele>214.9</ele><time>2026-07-21T20:28:48Z</time></trkpt>
<trkpt lat="35.183045" lon="-84.90284"><ele>216.1</ele><time>2026-07-21T20:28:51Z</time></trkpt>
<trkpt lat="35.183019" lon="-84.902831"><ele>216.4</ele><time>2026-07-21T20:28:53Z</time></trkpt>
<trkpt lat="35.182987" lon="-84.902819"><ele>220.7</ele><time>2026-07-21T20:28:56Z</time></trkpt>
<trkpt lat="35.182948" lon="-84.902806"><ele>221.6</ele><time>2026-07-21T20:28:59Z</time></trkpt>
<trkpt lat="35.182911" lon="-84.902785"><ele>222.2</ele><time>2026-07-21T20:29:02Z</time></trkpt>
<trkpt lat="35.18288" lon="-84.902757"><ele>224.3</ele><time>2026-07-21T20:29:05Z</time></trkpt>
<trkpt lat="35.182841" lon="-84.902743"><ele>225.9</ele><time>2026-07-21T20:29:08Z</time></trkpt>
<trkpt lat="35.182814" lon="-84.902729"><ele>225.2</ele><time>2026-07-21T20:29:10Z</time></trkpt>
<trkpt lat="35.18279" lon="-84.902707"><ele>225.6</ele><time>2026-07-21T20:29:12Z</time></trkpt>
<trkpt lat="35.182769" lon="-84.902685"><ele>224.9</ele><time>2026-07-21T20:29:14Z</time></trkpt>
<trkpt lat="35.182742" lon="-84.902651"><ele>225.6</ele><time>2026-07-21T20:29:17Z</time></trkpt>
<trkpt lat="35.182727" lon="-84.902621"><ele>225.6</ele><time>2026-07-21T20:29:19Z</time></trkpt>
<trkpt lat="35.182713" lon="-84.902589"><ele>225.6</ele><time>2026-07-21T20:29:21Z</time></trkpt>
<trkpt lat="35.182698" lon="-84.902545"><ele>224.9</ele><time>2026-07-21T20:29:24Z</time></trkpt>
<trkpt lat="35.182691" lon="-84.902511"><ele>225.6</ele><time>2026-07-21T20:29:26Z</time></trkpt>
<trkpt lat="35.182684" lon="-84.902478"><ele>225.6</ele><time>2026-07-21T20:29:28Z</time></trkpt>
<trkpt lat="35.182668" lon="-84.902434"><ele>223.1</ele><time>2026-07-21T20:29:31Z</time></trkpt>
<trkpt lat="35.182645" lon="-84.902402"><ele>222.5</ele><time>2026-07-21T20:29:34Z</time></trkpt>
<trkpt lat="35.18262" lon="-84.902369"><ele>222.2</ele><time>2026-07-21T20:29:37Z</time></trkpt>
<trkpt lat="35.182589" lon="-84.902343"><ele>221.0</ele><time>2026-07-21T20:29:40Z</time></trkpt>
<trkpt lat="35.182555" lon="-84.902322"><ele>221.0</ele><time>2026-07-21T20:29:43Z</time></trkpt>
<trkpt lat="35.182517" lon="-84.902312"><ele>221.0</ele><time>2026-07-21T20:29:46Z</time></trkpt>
<trkpt lat="35.182479" lon="-84.902315"><ele>222.2</ele><time>2026-07-21T20:29:49Z</time></trkpt>
<trkpt lat="35.182443" lon="-84.902316"><ele>223.4</ele><time>2026-07-21T20:29:52Z</time></trkpt>
<trkpt lat="35.182419" lon="-84.902336"><ele>222.8</ele><time>2026-07-21T20:29:54Z</time></trkpt>
<trkpt lat="35.182397" lon="-84.902357"><ele>222.2</ele><time>2026-07-21T20:29:56Z</time></trkpt>
<trkpt lat="35.18237" lon="-84.902388"><ele>222.2</ele><time>2026-07-21T20:29:59Z</time></trkpt>
<trkpt lat="35.182343" lon="-84.902417"><ele>222.2</ele><time>2026-07-21T20:30:02Z</time></trkpt>
<trkpt lat="35.182308" lon="-84.902441"><ele>221.3</ele><time>2026-07-21T20:30:05Z</time></trkpt>
<trkpt lat="35.182283" lon="-84.902458"><ele>221.0</ele><time>2026-07-21T20:30:07Z</time></trkpt>
<trkpt lat="35.182249" lon="-84.902482"><ele>220.4</ele><time>2026-07-21T20:30:10Z</time></trkpt>
<trkpt lat="35.182218" lon="-84.902511"><ele>218.2</ele><time>2026-07-21T20:30:13Z</time></trkpt>
<trkpt lat="35.182184" lon="-84.902533"><ele>219.5</ele><time>2026-07-21T20:30:16Z</time></trkpt>
<trkpt lat="35.182149" lon="-84.902552"><ele>218.8</ele><time>2026-07-21T20:30:19Z</time></trkpt>
<trkpt lat="35.182116" lon="-84.902573"><ele>218.2</ele><time>2026-07-21T20:30:22Z</time></trkpt>
<trkpt lat="35.182079" lon="-84.902589"><ele>219.8</ele><time>2026-07-21T20:30:25Z</time></trkpt>
<trkpt lat="35.182045" lon="-84.902609"><ele>219.8</ele><time>2026-07-21T20:30:28Z</time></trkpt>
<trkpt lat="35.182008" lon="-84.902624"><ele>220.7</ele><time>2026-07-21T20:30:31Z</time></trkpt>
<trkpt lat="35.18197" lon="-84.902642"><ele>221.3</ele><time>2026-07-21T20:30:34Z</time></trkpt>
<trkpt lat="35.181934" lon="-84.902658"><ele>221.6</ele><time>2026-07-21T20:30:37Z</time></trkpt>
<trkpt lat="35.181896" lon="-84.902672"><ele>222.2</ele><time>2026-07-21T20:30:40Z</time></trkpt>
<trkpt lat="35.181869" lon="-84.902679"><ele>222.5</ele><time>2026-07-21T20:30:42Z</time></trkpt>
<trkpt lat="35.181836" lon="-84.902705"><ele>223.4</ele><time>2026-07-21T20:30:45Z</time></trkpt>
<trkpt lat="35.181799" lon="-84.902725"><ele>222.8</ele><time>2026-07-21T20:30:48Z</time></trkpt>
<trkpt lat="35.181776" lon="-84.902745"><ele>222.5</ele><time>2026-07-21T20:30:50Z</time></trkpt>
<trkpt lat="35.181745" lon="-84.902769"><ele>224.0</ele><time>2026-07-21T20:30:53Z</time></trkpt>
<trkpt lat="35.181714" lon="-84.902787"><ele>222.5</ele><time>2026-07-21T20:30:56Z</time></trkpt>
<trkpt lat="35.181682" lon="-84.902809"><ele>222.8</ele><time>2026-07-21T20:30:59Z</time></trkpt>
<trkpt lat="35.181651" lon="-84.902836"><ele>224.0</ele><time>2026-07-21T20:31:01Z</time></trkpt>
<trkpt lat="35.181619" lon="-84.902862"><ele>222.5</ele><time>2026-07-21T20:31:03Z</time></trkpt>
<trkpt lat="35.181593" lon="-84.902881"><ele>222.5</ele><time>2026-07-21T20:31:05Z</time></trkpt>
<trkpt lat="35.181564" lon="-84.902899"><ele>222.2</ele><time>2026-07-21T20:31:07Z</time></trkpt>
<trkpt lat="35.18153" lon="-84.902922"><ele>221.6</ele><time>2026-07-21T20:31:10Z</time></trkpt>
<trkpt lat="35.181505" lon="-84.902938"><ele>222.2</ele><time>2026-07-21T20:31:12Z</time></trkpt>
<trkpt lat="35.181475" lon="-84.902957"><ele>222.8</ele><time>2026-07-21T20:31:14Z</time></trkpt>
<trkpt lat="35.18145" lon="-84.902976"><ele>222.5</ele><time>2026-07-21T20:31:16Z</time></trkpt>
<trkpt lat="35.181423" lon="-84.902994"><ele>223.4</ele><time>2026-07-21T20:31:18Z</time></trkpt>
<trkpt lat="35.181396" lon="-84.903005"><ele>225.2</ele><time>2026-07-21T20:31:20Z</time></trkpt>
<trkpt lat="35.181367" lon="-84.903023"><ele>223.4</ele><time>2026-07-21T20:31:23Z</time></trkpt>
<trkpt lat="35.181345" lon="-84.903048"><ele>223.7</ele><time>2026-07-21T20:31:25Z</time></trkpt>
<trkpt lat="35.181326" lon="-84.903073"><ele>224.3</ele><time>2026-07-21T20:31:27Z</time></trkpt>
<trkpt lat="35.181293" lon="-84.903102"><ele>224.3</ele><time>2026-07-21T20:31:30Z</time></trkpt>
<trkpt lat="35.181262" lon="-84.903132"><ele>223.7</ele><time>2026-07-21T20:31:33Z</time></trkpt>
<trkpt lat="35.181243" lon="-84.90316"><ele>223.1</ele><time>2026-07-21T20:31:35Z</time></trkpt>
<trkpt lat="35.181229" lon="-84.903191"><ele>222.8</ele><time>2026-07-21T20:31:37Z</time></trkpt>
<trkpt lat="35.181215" lon="-84.903225"><ele>221.9</ele><time>2026-07-21T20:31:39Z</time></trkpt>
<trkpt lat="35.181201" lon="-84.903257"><ele>221.3</ele><time>2026-07-21T20:31:41Z</time></trkpt>
<trkpt lat="35.181187" lon="-84.903288"><ele>221.6</ele><time>2026-07-21T20:31:43Z</time></trkpt>
<trkpt lat="35.181175" lon="-84.903318"><ele>222.5</ele><time>2026-07-21T20:31:45Z</time></trkpt>
<trkpt lat="35.181172" lon="-84.903352"><ele>222.8</ele><time>2026-07-21T20:31:47Z</time></trkpt>
<trkpt lat="35.181173" lon="-84.90339"><ele>222.2</ele><time>2026-07-21T20:31:49Z</time></trkpt>
<trkpt lat="35.181173" lon="-84.903428"><ele>221.9</ele><time>2026-07-21T20:31:51Z</time></trkpt>
<trkpt lat="35.181147" lon="-84.903465"><ele>223.1</ele><time>2026-07-21T20:31:54Z</time></trkpt>
<trkpt lat="35.181123" lon="-84.903483"><ele>222.5</ele><time>2026-07-21T20:31:56Z</time></trkpt>
<trkpt lat="35.181088" lon="-84.903505"><ele>222.5</ele><time>2026-07-21T20:31:59Z</time></trkpt>
<trkpt lat="35.181053" lon="-84.903514"><ele>223.4</ele><time>2026-07-21T20:32:02Z</time></trkpt>
<trkpt lat="35.181013" lon="-84.903525"><ele>224.9</ele><time>2026-07-21T20:32:05Z</time></trkpt>
<trkpt lat="35.180984" lon="-84.903538"><ele>225.2</ele><time>2026-07-21T20:32:07Z</time></trkpt>
<trkpt lat="35.180956" lon="-84.903546"><ele>225.6</ele><time>2026-07-21T20:32:09Z</time></trkpt>
<trkpt lat="35.180928" lon="-84.903555"><ele>225.6</ele><time>2026-07-21T20:32:11Z</time></trkpt>
<trkpt lat="35.1809" lon="-84.903564"><ele>226.5</ele><time>2026-07-21T20:32:13Z</time></trkpt>
<trkpt lat="35.180862" lon="-84.903574"><ele>226.8</ele><time>2026-07-21T20:32:16Z</time></trkpt>
<trkpt lat="35.180821" lon="-84.903582"><ele>227.4</ele><time>2026-07-21T20:32:19Z</time></trkpt>
<trkpt lat="35.180792" lon="-84.903594"><ele>227.4</ele><time>2026-07-21T20:32:21Z</time></trkpt>
<trkpt lat="35.180761" lon="-84.903598"><ele>228.0</ele><time>2026-07-21T20:32:23Z</time></trkpt>
<trkpt lat="35.180731" lon="-84.903601"><ele>228.3</ele><time>2026-07-21T20:32:25Z</time></trkpt>
<trkpt lat="35.180702" lon="-84.903599"><ele>229.2</ele><time>2026-07-21T20:32:27Z</time></trkpt>
<trkpt lat="35.180677" lon="-84.903577"><ele>230.1</ele><time>2026-07-21T20:32:29Z</time></trkpt>
<trkpt lat="35.180657" lon="-84.90355"><ele>230.7</ele><time>2026-07-21T20:32:31Z</time></trkpt>
<trkpt lat="35.180638" lon="-84.903522"><ele>230.4</ele><time>2026-07-21T20:32:33Z</time></trkpt>
<trkpt lat="35.180621" lon="-84.903493"><ele>228.3</ele><time>2026-07-21T20:32:35Z</time></trkpt>
<trkpt lat="35.180595" lon="-84.903455"><ele>226.8</ele><time>2026-07-21T20:32:38Z</time></trkpt>
<trkpt lat="35.18057" lon="-84.903417"><ele>226.5</ele><time>2026-07-21T20:32:41Z</time></trkpt>
<trkpt lat="35.180544" lon="-84.903382"><ele>226.2</ele><time>2026-07-21T20:32:44Z</time></trkpt>
<trkpt lat="35.180515" lon="-84.903348"><ele>226.2</ele><time>2026-07-21T20:32:47Z</time></trkpt>
<trkpt lat="35.18049" lon="-84.903313"><ele>223.4</ele><time>2026-07-21T20:32:50Z</time></trkpt>
<trkpt lat="35.180466" lon="-84.90328"><ele>221.6</ele><time>2026-07-21T20:32:53Z</time></trkpt>
<trkpt lat="35.18044" lon="-84.903244"><ele>221.3</ele><time>2026-07-21T20:32:56Z</time></trkpt>
<trkpt lat="35.18042" lon="-84.90322"><ele>220.4</ele><time>2026-07-21T20:32:58Z</time></trkpt>
<trkpt lat="35.180404" lon="-84.903191"><ele>221.3</ele><time>2026-07-21T20:33:00Z</time></trkpt>
<trkpt lat="35.180387" lon="-84.903162"><ele>221.0</ele><time>2026-07-21T20:33:02Z</time></trkpt>
<trkpt lat="35.180371" lon="-84.903118"><ele>219.5</ele><time>2026-07-21T20:33:05Z</time></trkpt>
<trkpt lat="35.180361" lon="-84.903072"><ele>219.8</ele><time>2026-07-21T20:33:08Z</time></trkpt>
<trkpt lat="35.180346" lon="-84.903026"><ele>218.8</ele><time>2026-07-21T20:33:11Z</time></trkpt>
<trkpt lat="35.180331" lon="-84.902985"><ele>218.8</ele><time>2026-07-21T20:33:14Z</time></trkpt>
<trkpt lat="35.180313" lon="-84.902942"><ele>220.4</ele><time>2026-07-21T20:33:17Z</time></trkpt>
<trkpt lat="35.180299" lon="-84.902896"><ele>218.8</ele><time>2026-07-21T20:33:20Z</time></trkpt>
<trkpt lat="35.180287" lon="-84.902852"><ele>219.2</ele><time>2026-07-21T20:33:23Z</time></trkpt>
<trkpt lat="35.180267" lon="-84.902811"><ele>219.8</ele><time>2026-07-21T20:33:26Z</time></trkpt>
<trkpt lat="35.180247" lon="-84.902769"><ele>220.1</ele><time>2026-07-21T20:33:29Z</time></trkpt>
<trkpt lat="35.180231" lon="-84.902725"><ele>220.1</ele><time>2026-07-21T20:33:32Z</time></trkpt>
<trkpt lat="35.180217" lon="-84.902677"><ele>221.9</ele><time>2026-07-21T20:33:35Z</time></trkpt>
<trkpt lat="35.180206" lon="-84.902634"><ele>222.5</ele><time>2026-07-21T20:33:38Z</time></trkpt>
<trkpt lat="35.180199" lon="-84.902601"><ele>222.8</ele><time>2026-07-21T20:33:40Z</time></trkpt>
<trkpt lat="35.18019" lon="-84.902567"><ele>222.8</ele><time>2026-07-21T20:33:42Z</time></trkpt>
<trkpt lat="35.18019" lon="-84.902532"><ele>223.1</ele><time>2026-07-21T20:33:44Z</time></trkpt>
<trkpt lat="35.180197" lon="-84.902487"><ele>223.1</ele><time>2026-07-21T20:33:47Z</time></trkpt>
<trkpt lat="35.180209" lon="-84.902443"><ele>223.7</ele><time>2026-07-21T20:33:50Z</time></trkpt>
<trkpt lat="35.180227" lon="-84.902399"><ele>223.7</ele><time>2026-07-21T20:33:53Z</time></trkpt>
<trkpt lat="35.180237" lon="-84.902365"><ele>223.7</ele><time>2026-07-21T20:33:55Z</time></trkpt>
<trkpt lat="35.180253" lon="-84.902323"><ele>223.1</ele><time>2026-07-21T20:33:58Z</time></trkpt>
<trkpt lat="35.180265" lon="-84.902277"><ele>222.8</ele><time>2026-07-21T20:34:01Z</time></trkpt>
<trkpt lat="35.180266" lon="-84.902235"><ele>221.9</ele><time>2026-07-21T20:34:04Z</time></trkpt>
<trkpt lat="35.180259" lon="-84.902201"><ele>221.6</ele><time>2026-07-21T20:34:06Z</time></trkpt>
<trkpt lat="35.180253" lon="-84.902153"><ele>222.2</ele><time>2026-07-21T20:34:09Z</time></trkpt>
<trkpt lat="35.180239" lon="-84.902123"><ele>221.9</ele><time>2026-07-21T20:34:11Z</time></trkpt>
<trkpt lat="35.180203" lon="-84.902108"><ele>222.8</ele><time>2026-07-21T20:34:14Z</time></trkpt>
<trkpt lat="35.180167" lon="-84.902096"><ele>222.2</ele><time>2026-07-21T20:34:17Z</time></trkpt>
<trkpt lat="35.180142" lon="-84.902078"><ele>221.9</ele><time>2026-07-21T20:34:19Z</time></trkpt>
<trkpt lat="35.180112" lon="-84.902046"><ele>222.8</ele><time>2026-07-21T20:34:22Z</time></trkpt>
<trkpt lat="35.180083" lon="-84.902015"><ele>223.1</ele><time>2026-07-21T20:34:25Z</time></trkpt>
<trkpt lat="35.180058" lon="-84.901979"><ele>223.1</ele><time>2026-07-21T20:34:28Z</time></trkpt>
<trkpt lat="35.180032" lon="-84.901947"><ele>223.1</ele><time>2026-07-21T20:34:31Z</time></trkpt>
<trkpt lat="35.180006" lon="-84.901912"><ele>223.7</ele><time>2026-07-21T20:34:34Z</time></trkpt>
<trkpt lat="35.179987" lon="-84.901885"><ele>223.7</ele><time>2026-07-21T20:34:36Z</time></trkpt>
<trkpt lat="35.17996" lon="-84.901849"><ele>223.7</ele><time>2026-07-21T20:34:39Z</time></trkpt>
<trkpt lat="35.17993" lon="-84.901818"><ele>224.0</ele><time>2026-07-21T20:34:42Z</time></trkpt>
<trkpt lat="35.179895" lon="-84.901789"><ele>224.0</ele><time>2026-07-21T20:34:45Z</time></trkpt>
<trkpt lat="35.179874" lon="-84.901767"><ele>223.7</ele><time>2026-07-21T20:34:47Z</time></trkpt>
<trkpt lat="35.179854" lon="-84.901741"><ele>224.0</ele><time>2026-07-21T20:34:49Z</time></trkpt>
<trkpt lat="35.179843" lon="-84.90171"><ele>223.4</ele><time>2026-07-21T20:34:51Z</time></trkpt>
<trkpt lat="35.179839" lon="-84.901663"><ele>223.1</ele><time>2026-07-21T20:34:54Z</time></trkpt>
<trkpt lat="35.179849" lon="-84.901623"><ele>223.1</ele><time>2026-07-21T20:34:57Z</time></trkpt>
<trkpt lat="35.179862" lon="-84.90158"><ele>223.1</ele><time>2026-07-21T20:35:00Z</time></trkpt>
<trkpt lat="35.179879" lon="-84.901535"><ele>223.4</ele><time>2026-07-21T20:35:03Z</time></trkpt>
<trkpt lat="35.179889" lon="-84.901488"><ele>224.3</ele><time>2026-07-21T20:35:06Z</time></trkpt>
<trkpt lat="35.179906" lon="-84.901444"><ele>223.1</ele><time>2026-07-21T20:35:09Z</time></trkpt>
<trkpt lat="35.179911" lon="-84.90141"><ele>223.4</ele><time>2026-07-21T20:35:11Z</time></trkpt>
<trkpt lat="35.179901" lon="-84.901375"><ele>223.7</ele><time>2026-07-21T20:35:13Z</time></trkpt>
<trkpt lat="35.179898" lon="-84.901341"><ele>223.7</ele><time>2026-07-21T20:35:15Z</time></trkpt>
<trkpt lat="35.179889" lon="-84.901297"><ele>223.1</ele><time>2026-07-21T20:35:18Z</time></trkpt>
<trkpt lat="35.179878" lon="-84.901249"><ele>223.1</ele><time>2026-07-21T20:35:21Z</time></trkpt>
<trkpt lat="35.179861" lon="-84.901219"><ele>222.8</ele><time>2026-07-21T20:35:23Z</time></trkpt>
<trkpt lat="35.179842" lon="-84.901189"><ele>223.4</ele><time>2026-07-21T20:35:25Z</time></trkpt>
<trkpt lat="35.179835" lon="-84.901143"><ele>222.5</ele><time>2026-07-21T20:35:28Z</time></trkpt>
<trkpt lat="35.179857" lon="-84.901109"><ele>222.2</ele><time>2026-07-21T20:35:31Z</time></trkpt>
<trkpt lat="35.179879" lon="-84.901087"><ele>221.0</ele><time>2026-07-21T20:35:33Z</time></trkpt>
<trkpt lat="35.179901" lon="-84.901067"><ele>220.4</ele><time>2026-07-21T20:35:35Z</time></trkpt>
<trkpt lat="35.179926" lon="-84.901049"><ele>221.0</ele><time>2026-07-21T20:35:37Z</time></trkpt>
<trkpt lat="35.179961" lon="-84.901023"><ele>222.5</ele><time>2026-07-21T20:35:40Z</time></trkpt>
<trkpt lat="35.179988" lon="-84.90099"><ele>224.3</ele><time>2026-07-21T20:35:43Z</time></trkpt>
<trkpt lat="35.180012" lon="-84.900958"><ele>225.9</ele><time>2026-07-21T20:35:46Z</time></trkpt>
<trkpt lat="35.180032" lon="-84.900923"><ele>228.6</ele><time>2026-07-21T20:35:49Z</time></trkpt>
<trkpt lat="35.18005" lon="-84.900887"><ele>229.5</ele><time>2026-07-21T20:35:52Z</time></trkpt>
<trkpt lat="35.180055" lon="-84.900852"><ele>228.9</ele><time>2026-07-21T20:35:54Z</time></trkpt>
<trkpt lat="35.180056" lon="-84.900816"><ele>228.9</ele><time>2026-07-21T20:35:56Z</time></trkpt>
<trkpt lat="35.180055" lon="-84.900777"><ele>228.9</ele><time>2026-07-21T20:35:58Z</time></trkpt>
<trkpt lat="35.180048" lon="-84.900742"><ele>229.5</ele><time>2026-07-21T20:36:00Z</time></trkpt>
<trkpt lat="35.180056" lon="-84.900707"><ele>230.1</ele><time>2026-07-21T20:36:02Z</time></trkpt>
<trkpt lat="35.180071" lon="-84.900665"><ele>230.4</ele><time>2026-07-21T20:36:05Z</time></trkpt>
<trkpt lat="35.180105" lon="-84.900631"><ele>229.5</ele><time>2026-07-21T20:36:08Z</time></trkpt>
<trkpt lat="35.180124" lon="-84.900603"><ele>228.6</ele><time>2026-07-21T20:36:10Z</time></trkpt>
<trkpt lat="35.180144" lon="-84.900575"><ele>226.5</ele><time>2026-07-21T20:36:12Z</time></trkpt>
<trkpt lat="35.180166" lon="-84.900552"><ele>226.2</ele><time>2026-07-21T20:36:14Z</time></trkpt>
<trkpt lat="35.180186" lon="-84.900524"><ele>226.8</ele><time>2026-07-21T20:36:16Z</time></trkpt>
<trkpt lat="35.180198" lon="-84.900476"><ele>226.2</ele><time>2026-07-21T20:36:19Z</time></trkpt>
<trkpt lat="35.180206" lon="-84.900428"><ele>226.5</ele><time>2026-07-21T20:36:22Z</time></trkpt>
<trkpt lat="35.180213" lon="-84.900381"><ele>224.9</ele><time>2026-07-21T20:36:25Z</time></trkpt>
<trkpt lat="35.180232" lon="-84.900338"><ele>224.9</ele><time>2026-07-21T20:36:28Z</time></trkpt>
<trkpt lat="35.180248" lon="-84.90031"><ele>225.6</ele><time>2026-07-21T20:36:30Z</time></trkpt>
<trkpt lat="35.180263" lon="-84.900281"><ele>226.5</ele><time>2026-07-21T20:36:32Z</time></trkpt>
<trkpt lat="35.180282" lon="-84.900257"><ele>226.8</ele><time>2026-07-21T20:36:34Z</time></trkpt>
<trkpt lat="35.18032" lon="-84.900236"><ele>227.7</ele><time>2026-07-21T20:36:37Z</time></trkpt>
<trkpt lat="35.180344" lon="-84.9002"><ele>227.7</ele><time>2026-07-21T20:36:40Z</time></trkpt>
<trkpt lat="35.180369" lon="-84.90018"><ele>228.6</ele><time>2026-07-21T20:36:43Z</time></trkpt>
<trkpt lat="35.180382" lon="-84.900143"><ele>227.7</ele><time>2026-07-21T20:36:46Z</time></trkpt>
<trkpt lat="35.180394" lon="-84.900107"><ele>225.9</ele><time>2026-07-21T20:36:49Z</time></trkpt>
<trkpt lat="35.1804" lon="-84.900063"><ele>225.6</ele><time>2026-07-21T20:36:52Z</time></trkpt>
<trkpt lat="35.180406" lon="-84.900015"><ele>225.6</ele><time>2026-07-21T20:36:55Z</time></trkpt>
<trkpt lat="35.180401" lon="-84.899981"><ele>225.9</ele><time>2026-07-21T20:36:57Z</time></trkpt>
<trkpt lat="35.180394" lon="-84.899944"><ele>225.9</ele><time>2026-07-21T20:36:59Z</time></trkpt>
<trkpt lat="35.180387" lon="-84.89991"><ele>226.5</ele><time>2026-07-21T20:37:01Z</time></trkpt>
<trkpt lat="35.180383" lon="-84.899875"><ele>226.5</ele><time>2026-07-21T20:37:03Z</time></trkpt>
<trkpt lat="35.180389" lon="-84.899837"><ele>225.9</ele><time>2026-07-21T20:37:05Z</time></trkpt>
<trkpt lat="35.180385" lon="-84.8998"><ele>226.5</ele><time>2026-07-21T20:37:07Z</time></trkpt>
<trkpt lat="35.180376" lon="-84.89976"><ele>225.9</ele><time>2026-07-21T20:37:09Z</time></trkpt>
<trkpt lat="35.180373" lon="-84.899723"><ele>226.5</ele><time>2026-07-21T20:37:11Z</time></trkpt>
<trkpt lat="35.180373" lon="-84.899688"><ele>227.1</ele><time>2026-07-21T20:37:13Z</time></trkpt>
<trkpt lat="35.180388" lon="-84.899643"><ele>225.9</ele><time>2026-07-21T20:37:16Z</time></trkpt>
<trkpt lat="35.180421" lon="-84.89964"><ele>225.9</ele><time>2026-07-21T20:37:18Z</time></trkpt>
<trkpt lat="35.180447" lon="-84.899668"><ele>225.2</ele><time>2026-07-21T20:37:20Z</time></trkpt>
<trkpt lat="35.180453" lon="-84.899713"><ele>225.2</ele><time>2026-07-21T20:37:22Z</time></trkpt>
<trkpt lat="35.180455" lon="-84.899749"><ele>221.9</ele><time>2026-07-21T20:37:24Z</time></trkpt>
<trkpt lat="35.180456" lon="-84.899787"><ele>220.7</ele><time>2026-07-21T20:37:26Z</time></trkpt>
<trkpt lat="35.180459" lon="-84.899826"><ele>219.8</ele><time>2026-07-21T20:37:28Z</time></trkpt>
<trkpt lat="35.180466" lon="-84.899862"><ele>219.2</ele><time>2026-07-21T20:37:30Z</time></trkpt>
<trkpt lat="35.180475" lon="-84.899894"><ele>217.6</ele><time>2026-07-21T20:37:32Z</time></trkpt>
<trkpt lat="35.180486" lon="-84.899925"><ele>217.9</ele><time>2026-07-21T20:37:34Z</time></trkpt>
<trkpt lat="35.180498" lon="-84.899956"><ele>218.2</ele><time>2026-07-21T20:37:36Z</time></trkpt>
<trkpt lat="35.18051" lon="-84.89999"><ele>218.8</ele><time>2026-07-21T20:37:38Z</time></trkpt>
<trkpt lat="35.180523" lon="-84.900022"><ele>219.8</ele><time>2026-07-21T20:37:40Z</time></trkpt>
<trkpt lat="35.180547" lon="-84.900059"><ele>218.8</ele><time>2026-07-21T20:37:43Z</time></trkpt>
<trkpt lat="35.180567" lon="-84.9001"><ele>220.7</ele><time>2026-07-21T20:37:46Z</time></trkpt>
<trkpt lat="35.180592" lon="-84.900136"><ele>219.8</ele><time>2026-07-21T20:37:49Z</time></trkpt>
<trkpt lat="35.180621" lon="-84.900162"><ele>221.6</ele><time>2026-07-21T20:37:52Z</time></trkpt>
<trkpt lat="35.180662" lon="-84.900177"><ele>220.7</ele><time>2026-07-21T20:37:55Z</time></trkpt>
<trkpt lat="35.180689" lon="-84.900191"><ele>221.6</ele><time>2026-07-21T20:37:57Z</time></trkpt>
<trkpt lat="35.180716" lon="-84.900201"><ele>221.3</ele><time>2026-07-21T20:37:59Z</time></trkpt>
<trkpt lat="35.180753" lon="-84.90022"><ele>222.8</ele><time>2026-07-21T20:38:02Z</time></trkpt>
<trkpt lat="35.18078" lon="-84.900232"><ele>223.4</ele><time>2026-07-21T20:38:04Z</time></trkpt>
<trkpt lat="35.180815" lon="-84.900254"><ele>224.3</ele><time>2026-07-21T20:38:07Z</time></trkpt>
<trkpt lat="35.180778" lon="-84.900266"><ele>223.4</ele><time>2026-07-21T20:38:11Z</time></trkpt>
<trkpt lat="35.180748" lon="-84.900241"><ele>222.5</ele><time>2026-07-21T20:38:13Z</time></trkpt>
<trkpt lat="35.18072" lon="-84.900223"><ele>221.3</ele><time>2026-07-21T20:38:15Z</time></trkpt>
<trkpt lat="35.180691" lon="-84.900205"><ele>220.7</ele><time>2026-07-21T20:38:17Z</time></trkpt>
<trkpt lat="35.180665" lon="-84.900186"><ele>221.9</ele><time>2026-07-21T20:38:19Z</time></trkpt>
<trkpt lat="35.180638" lon="-84.900171"><ele>221.9</ele><time>2026-07-21T20:38:21Z</time></trkpt>
<trkpt lat="35.180613" lon="-84.900154"><ele>222.5</ele><time>2026-07-21T20:38:23Z</time></trkpt>
<trkpt lat="35.180589" lon="-84.900129"><ele>221.9</ele><time>2026-07-21T20:38:25Z</time></trkpt>
<trkpt lat="35.180567" lon="-84.900099"><ele>222.5</ele><time>2026-07-21T20:38:27Z</time></trkpt>
<trkpt lat="35.180551" lon="-84.900065"><ele>222.5</ele><time>2026-07-21T20:38:29Z</time></trkpt>
<trkpt lat="35.180539" lon="-84.90003"><ele>221.9</ele><time>2026-07-21T20:38:31Z</time></trkpt>
<trkpt lat="35.180523" lon="-84.899999"><ele>222.2</ele><time>2026-07-21T20:38:33Z</time></trkpt>
<trkpt lat="35.180501" lon="-84.899977"><ele>223.4</ele><time>2026-07-21T20:38:35Z</time></trkpt>
<trkpt lat="35.180471" lon="-84.899968"><ele>224.0</ele><time>2026-07-21T20:38:37Z</time></trkpt>
<trkpt lat="35.180439" lon="-84.899977"><ele>223.7</ele><time>2026-07-21T20:38:39Z</time></trkpt>
<trkpt lat="35.180412" lon="-84.899986"><ele>225.2</ele><time>2026-07-21T20:38:41Z</time></trkpt>
<trkpt lat="35.180387" lon="-84.900001"><ele>227.1</ele><time>2026-07-21T20:38:43Z</time></trkpt>
<trkpt lat="35.180372" lon="-84.900048"><ele>224.9</ele><time>2026-07-21T20:38:46Z</time></trkpt>
<trkpt lat="35.180366" lon="-84.900085"><ele>223.1</ele><time>2026-07-21T20:38:48Z</time></trkpt>
<trkpt lat="35.180352" lon="-84.900115"><ele>222.2</ele><time>2026-07-21T20:38:50Z</time></trkpt>
<trkpt lat="35.180325" lon="-84.900152"><ele>223.1</ele><time>2026-07-21T20:38:53Z</time></trkpt>
<trkpt lat="35.180301" lon="-84.900172"><ele>222.8</ele><time>2026-07-21T20:38:55Z</time></trkpt>
<trkpt lat="35.180259" lon="-84.900176"><ele>224.6</ele><time>2026-07-21T20:38:58Z</time></trkpt>
<trkpt lat="35.18023" lon="-84.900157"><ele>224.3</ele><time>2026-07-21T20:39:00Z</time></trkpt>
<trkpt lat="35.180215" lon="-84.900105"><ele>224.3</ele><time>2026-07-21T20:39:02Z</time></trkpt>
<trkpt lat="35.180204" lon="-84.900063"><ele>226.2</ele><time>2026-07-21T20:39:04Z</time></trkpt>
<trkpt lat="35.180189" lon="-84.900031"><ele>228.6</ele><time>2026-07-21T20:39:06Z</time></trkpt>
<trkpt lat="35.180169" lon="-84.900002"><ele>228.0</ele><time>2026-07-21T20:39:09Z</time></trkpt>
<trkpt lat="35.180145" lon="-84.899983"><ele>230.7</ele><time>2026-07-21T20:39:12Z</time></trkpt>
<trkpt lat="35.180118" lon="-84.899965"><ele>232.3</ele><time>2026-07-21T20:39:15Z</time></trkpt>
<trkpt lat="35.180098" lon="-84.899938"><ele>231.6</ele><time>2026-07-21T20:39:18Z</time></trkpt>
<trkpt lat="35.180073" lon="-84.899902"><ele>232.3</ele><time>2026-07-21T20:39:21Z</time></trkpt>
<trkpt lat="35.180052" lon="-84.899879"><ele>232.9</ele><time>2026-07-21T20:39:23Z</time></trkpt>
<trkpt lat="35.180023" lon="-84.899873"><ele>233.2</ele><time>2026-07-21T20:39:25Z</time></trkpt>
<trkpt lat="35.179995" lon="-84.899869"><ele>232.9</ele><time>2026-07-21T20:39:27Z</time></trkpt>
<trkpt lat="35.179956" lon="-84.899858"><ele>233.2</ele><time>2026-07-21T20:39:30Z</time></trkpt>
<trkpt lat="35.179928" lon="-84.899862"><ele>232.9</ele><time>2026-07-21T20:39:32Z</time></trkpt>
<trkpt lat="35.179883" lon="-84.899867"><ele>233.8</ele><time>2026-07-21T20:39:35Z</time></trkpt>
<trkpt lat="35.179861" lon="-84.899887"><ele>233.5</ele><time>2026-07-21T20:39:37Z</time></trkpt>
<trkpt lat="35.179844" lon="-84.899925"><ele>234.1</ele><time>2026-07-21T20:39:40Z</time></trkpt>
<trkpt lat="35.179844" lon="-84.899973"><ele>234.7</ele><time>2026-07-21T20:39:43Z</time></trkpt>
<trkpt lat="35.179835" lon="-84.900021"><ele>235.0</ele><time>2026-07-21T20:39:46Z</time></trkpt>
<trkpt lat="35.179799" lon="-84.900012"><ele>235.3</ele><time>2026-07-21T20:39:48Z</time></trkpt>
<trkpt lat="35.179807" lon="-84.899969"><ele>238.7</ele><time>2026-07-21T20:39:50Z</time></trkpt>
<trkpt lat="35.179812" lon="-84.899921"><ele>237.7</ele><time>2026-07-21T20:39:53Z</time></trkpt>
<trkpt lat="35.179793" lon="-84.89988"><ele>235.6</ele><time>2026-07-21T20:39:56Z</time></trkpt>
<trkpt lat="35.179763" lon="-84.899868"><ele>234.4</ele><time>2026-07-21T20:39:59Z</time></trkpt>
<trkpt lat="35.179728" lon="-84.89987"><ele>234.1</ele><time>2026-07-21T20:40:02Z</time></trkpt>
<trkpt lat="35.1797" lon="-84.899877"><ele>233.5</ele><time>2026-07-21T20:40:04Z</time></trkpt>
<trkpt lat="35.179664" lon="-84.899893"><ele>232.6</ele><time>2026-07-21T20:40:07Z</time></trkpt>
<trkpt lat="35.179627" lon="-84.899907"><ele>232.6</ele><time>2026-07-21T20:40:10Z</time></trkpt>
<trkpt lat="35.179595" lon="-84.899928"><ele>233.2</ele><time>2026-07-21T20:40:13Z</time></trkpt>
<trkpt lat="35.179569" lon="-84.899965"><ele>233.2</ele><time>2026-07-21T20:40:16Z</time></trkpt>
<trkpt lat="35.179552" lon="-84.899997"><ele>234.1</ele><time>2026-07-21T20:40:18Z</time></trkpt>
<trkpt lat="35.179542" lon="-84.900033"><ele>235.0</ele><time>2026-07-21T20:40:20Z</time></trkpt>
<trkpt lat="35.179539" lon="-84.900072"><ele>235.0</ele><time>2026-07-21T20:40:22Z</time></trkpt>
<trkpt lat="35.179538" lon="-84.900119"><ele>234.4</ele><time>2026-07-21T20:40:25Z</time></trkpt>
<trkpt lat="35.179541" lon="-84.900169"><ele>235.3</ele><time>2026-07-21T20:40:28Z</time></trkpt>
<trkpt lat="35.179541" lon="-84.900202"><ele>235.6</ele><time>2026-07-21T20:40:30Z</time></trkpt>
<trkpt lat="35.179537" lon="-84.900237"><ele>235.9</ele><time>2026-07-21T20:40:32Z</time></trkpt>
<trkpt lat="35.179524" lon="-84.900284"><ele>235.3</ele><time>2026-07-21T20:40:35Z</time></trkpt>
<trkpt lat="35.179512" lon="-84.900315"><ele>236.5</ele><time>2026-07-21T20:40:37Z</time></trkpt>
<trkpt lat="35.17949" lon="-84.900354"><ele>237.1</ele><time>2026-07-21T20:40:40Z</time></trkpt>
<trkpt lat="35.179461" lon="-84.900386"><ele>238.0</ele><time>2026-07-21T20:40:43Z</time></trkpt>
<trkpt lat="35.179432" lon="-84.900419"><ele>238.7</ele><time>2026-07-21T20:40:46Z</time></trkpt>
<trkpt lat="35.179407" lon="-84.900435"><ele>239.6</ele><time>2026-07-21T20:40:48Z</time></trkpt>
<trkpt lat="35.179379" lon="-84.900446"><ele>240.2</ele><time>2026-07-21T20:40:50Z</time></trkpt>
<trkpt lat="35.179345" lon="-84.900471"><ele>239.9</ele><time>2026-07-21T20:40:53Z</time></trkpt>
<trkpt lat="35.179316" lon="-84.900498"><ele>242.0</ele><time>2026-07-21T20:40:56Z</time></trkpt>
<trkpt lat="35.179284" lon="-84.900524"><ele>238.7</ele><time>2026-07-21T20:40:59Z</time></trkpt>
<trkpt lat="35.179257" lon="-84.900536"><ele>237.1</ele><time>2026-07-21T20:41:01Z</time></trkpt>
<trkpt lat="35.179229" lon="-84.900546"><ele>236.2</ele><time>2026-07-21T20:41:03Z</time></trkpt>
<trkpt lat="35.179203" lon="-84.900562"><ele>236.2</ele><time>2026-07-21T20:41:05Z</time></trkpt>
<trkpt lat="35.179178" lon="-84.900582"><ele>236.8</ele><time>2026-07-21T20:41:07Z</time></trkpt>
<trkpt lat="35.179157" lon="-84.900603"><ele>237.7</ele><time>2026-07-21T20:41:09Z</time></trkpt>
<trkpt lat="35.179145" lon="-84.900635"><ele>236.2</ele><time>2026-07-21T20:41:11Z</time></trkpt>
<trkpt lat="35.179127" lon="-84.900678"><ele>234.1</ele><time>2026-07-21T20:41:14Z</time></trkpt>
<trkpt lat="35.179101" lon="-84.900714"><ele>234.4</ele><time>2026-07-21T20:41:17Z</time></trkpt>
<trkpt lat="35.179087" lon="-84.900746"><ele>235.0</ele><time>2026-07-21T20:41:19Z</time></trkpt>
<trkpt lat="35.179063" lon="-84.900765"><ele>235.6</ele><time>2026-07-21T20:41:21Z</time></trkpt>
<trkpt lat="35.179037" lon="-84.900779"><ele>235.9</ele><time>2026-07-21T20:41:23Z</time></trkpt>
<trkpt lat="35.179012" lon="-84.900796"><ele>236.2</ele><time>2026-07-21T20:41:25Z</time></trkpt>
<trkpt lat="35.178985" lon="-84.900808"><ele>237.4</ele><time>2026-07-21T20:41:27Z</time></trkpt>
<trkpt lat="35.178958" lon="-84.900821"><ele>238.4</ele><time>2026-07-21T20:41:29Z</time></trkpt>
<trkpt lat="35.178934" lon="-84.900841"><ele>239.3</ele><time>2026-07-21T20:41:31Z</time></trkpt>
<trkpt lat="35.178909" lon="-84.900859"><ele>239.0</ele><time>2026-07-21T20:41:33Z</time></trkpt>
<trkpt lat="35.178883" lon="-84.900875"><ele>239.0</ele><time>2026-07-21T20:41:35Z</time></trkpt>
<trkpt lat="35.17885" lon="-84.900905"><ele>239.9</ele><time>2026-07-21T20:41:38Z</time></trkpt>
<trkpt lat="35.178822" lon="-84.900914"><ele>238.0</ele><time>2026-07-21T20:41:40Z</time></trkpt>
<trkpt lat="35.178792" lon="-84.90092"><ele>237.1</ele><time>2026-07-21T20:41:42Z</time></trkpt>
<trkpt lat="35.178762" lon="-84.900935"><ele>236.2</ele><time>2026-07-21T20:41:44Z</time></trkpt>
<trkpt lat="35.178735" lon="-84.900952"><ele>233.8</ele><time>2026-07-21T20:41:46Z</time></trkpt>
<trkpt lat="35.178709" lon="-84.900961"><ele>232.0</ele><time>2026-07-21T20:41:48Z</time></trkpt>
<trkpt lat="35.17867" lon="-84.900975"><ele>232.9</ele><time>2026-07-21T20:41:51Z</time></trkpt>
<trkpt lat="35.178643" lon="-84.900985"><ele>232.9</ele><time>2026-07-21T20:41:53Z</time></trkpt>
<trkpt lat="35.178617" lon="-84.901023"><ele>230.7</ele><time>2026-07-21T20:41:56Z</time></trkpt>
<trkpt lat="35.178587" lon="-84.901053"><ele>231.0</ele><time>2026-07-21T20:41:59Z</time></trkpt>
<trkpt lat="35.17856" lon="-84.901086"><ele>229.2</ele><time>2026-07-21T20:42:02Z</time></trkpt>
<trkpt lat="35.178533" lon="-84.901122"><ele>230.7</ele><time>2026-07-21T20:42:05Z</time></trkpt>
<trkpt lat="35.178512" lon="-84.901147"><ele>228.9</ele><time>2026-07-21T20:42:07Z</time></trkpt>
<trkpt lat="35.178488" lon="-84.901165"><ele>228.3</ele><time>2026-07-21T20:42:09Z</time></trkpt>
<trkpt lat="35.178462" lon="-84.90118"><ele>228.9</ele><time>2026-07-21T20:42:11Z</time></trkpt>
<trkpt lat="35.178417" lon="-84.901202"><ele>232.6</ele><time>2026-07-21T20:42:13Z</time></trkpt>
<trkpt lat="35.178375" lon="-84.901204"><ele>232.6</ele><time>2026-07-21T20:42:16Z</time></trkpt>
<trkpt lat="35.178348" lon="-84.901214"><ele>233.5</ele><time>2026-07-21T20:42:19Z</time></trkpt>
<trkpt lat="35.178315" lon="-84.901233"><ele>232.3</ele><time>2026-07-21T20:42:22Z</time></trkpt>
<trkpt lat="35.178304" lon="-84.901274"><ele>229.5</ele><time>2026-07-21T20:42:25Z</time></trkpt>
<trkpt lat="35.178331" lon="-84.901308"><ele>227.1</ele><time>2026-07-21T20:42:28Z</time></trkpt>
<trkpt lat="35.178344" lon="-84.901347"><ele>227.4</ele><time>2026-07-21T20:42:31Z</time></trkpt>
<trkpt lat="35.178364" lon="-84.901381"><ele>227.4</ele><time>2026-07-21T20:42:34Z</time></trkpt>
<trkpt lat="35.178385" lon="-84.90142"><ele>226.8</ele><time>2026-07-21T20:42:37Z</time></trkpt>
<trkpt lat="35.178402" lon="-84.901463"><ele>227.4</ele><time>2026-07-21T20:42:40Z</time></trkpt>
<trkpt lat="35.178419" lon="-84.901502"><ele>226.5</ele><time>2026-07-21T20:42:43Z</time></trkpt>
<trkpt lat="35.178434" lon="-84.901542"><ele>225.6</ele><time>2026-07-21T20:42:46Z</time></trkpt>
<trkpt lat="35.178453" lon="-84.901586"><ele>224.9</ele><time>2026-07-21T20:42:49Z</time></trkpt>
<trkpt lat="35.178467" lon="-84.901619"><ele>224.3</ele><time>2026-07-21T20:42:51Z</time></trkpt>
<trkpt lat="35.178477" lon="-84.90165"><ele>224.3</ele><time>2026-07-21T20:42:53Z</time></trkpt>
<trkpt lat="35.178479" lon="-84.901684"><ele>224.6</ele><time>2026-07-21T20:42:55Z</time></trkpt>
<trkpt lat="35.178479" lon="-84.901718"><ele>223.4</ele><time>2026-07-21T20:42:57Z</time></trkpt>
<trkpt lat="35.178475" lon="-84.901753"><ele>224.0</ele><time>2026-07-21T20:42:59Z</time></trkpt>
<trkpt lat="35.178465" lon="-84.9018"><ele>224.9</ele><time>2026-07-21T20:43:02Z</time></trkpt>
<trkpt lat="35.178451" lon="-84.901849"><ele>226.5</ele><time>2026-07-21T20:43:05Z</time></trkpt>
<trkpt lat="35.178433" lon="-84.901894"><ele>226.2</ele><time>2026-07-21T20:43:08Z</time></trkpt>
<trkpt lat="35.178405" lon="-84.901906"><ele>227.7</ele><time>2026-07-21T20:43:13Z</time></trkpt>
<trkpt lat="35.178412" lon="-84.901906"><ele>226.2</ele><time>2026-07-21T20:43:16Z</time></trkpt>
<trkpt lat="35.178413" lon="-84.901906"><ele>226.2</ele><time>2026-07-21T20:43:17Z</time></trkpt>
<trkpt lat="35.178414" lon="-84.901908"><ele>226.2</ele><time>2026-07-21T20:44:49Z</time></trkpt>
<trkpt lat="35.178416" lon="-84.901908"><ele>225.9</ele><time>2026-07-21T20:44:50Z</time></trkpt>
<trkpt lat="35.178417" lon="-84.901909"><ele>225.9</ele><time>2026-07-21T20:44:51Z</time></trkpt>
<trkpt lat="35.178417" lon="-84.90191"><ele>225.9</ele><time>2026-07-21T20:45:00Z</time></trkpt>
<trkpt lat="35.178414" lon="-84.901907"><ele>226.2</ele><time>2026-07-21T20:45:01Z</time></trkpt>
<trkpt lat="35.178386" lon="-84.901893"><ele>226.5</ele><time>2026-07-21T20:45:06Z</time></trkpt>
<trkpt lat="35.17838" lon="-84.901852"><ele>225.6</ele><time>2026-07-21T20:45:14Z</time></trkpt>
<trkpt lat="35.178387" lon="-84.901793"><ele>225.2</ele><time>2026-07-21T20:45:16Z</time></trkpt>
</trkseg></trk></gpx>